sensor_id;sensor_type;location;lat;lon;timestamp;P1;durP1;ratioP1;P2;durP2;ratioP2
8474;SDS011;4274;52.012;8.448;2023-09-07T00:00:46;53.27;;;4.23;;
8474;SDS011;4274;52.012;8.448;2023-09-07T00:03:15;48.17;;;4.23;;
8474;SDS011;4274;52.012;8.448;2023-09-07T00:05:40;56.20;;;4.60;;
8474;SDS011;4274;52.012;8.448;2023-09-07T00:08:06;49.73;;;4.20;;
8474;SDS011;4274;52.012;8.448;2023-09-07T00:10:32;49.60;;;3.93;;
8474;SDS011;4274;52.012;8.448;2023-09-07T00:13:02;59.17;;;4.37;;
8474;SDS011;4274;52.012;8.448;2023-09-07T00:15:28;49.00;;;4.07;;
8474;SDS011;4274;52.012;8.448;2023-09-07T00:17:55;53.10;;;4.20;;
8474;SDS011;4274;52.012;8.448;2023-09-07T00:20:21;49.67;;;4.70;;
8474;SDS011;4274;52.012;8.448;2023-09-07T00:22:48;52.53;;;4.47;;
8474;SDS011;4274;52.012;8.448;2023-09-07T00:25:13;51.87;;;4.20;;
8474;SDS011;4274;52.012;8.448;2023-09-07T00:27:39;51.43;;;4.67;;
8474;SDS011;4274;52.012;8.448;2023-09-07T00:30:05;53.87;;;4.43;;
8474;SDS011;4274;52.012;8.448;2023-09-07T00:32:37;49.87;;;4.83;;
8474;SDS011;4274;52.012;8.448;2023-09-07T00:35:04;48.73;;;4.20;;
8474;SDS011;4274;52.012;8.448;2023-09-07T00:37:30;53.00;;;4.70;;
8474;SDS011;4274;52.012;8.448;2023-09-07T00:39:56;51.60;;;4.60;;
8474;SDS011;4274;52.012;8.448;2023-09-07T00:42:22;49.20;;;4.20;;
8474;SDS011;4274;52.012;8.448;2023-09-07T00:44:47;48.07;;;4.40;;
8474;SDS011;4274;52.012;8.448;2023-09-07T00:47:14;48.70;;;4.40;;
8474;SDS011;4274;52.012;8.448;2023-09-07T00:49:40;49.40;;;4.20;;
8474;SDS011;4274;52.012;8.448;2023-09-07T00:52:06;49.70;;;4.30;;
8474;SDS011;4274;52.012;8.448;2023-09-07T00:54:34;48.50;;;4.17;;
8474;SDS011;4274;52.012;8.448;2023-09-07T00:57:01;48.07;;;3.87;;
8474;SDS011;4274;52.012;8.448;2023-09-07T00:59:27;50.80;;;4.90;;
8474;SDS011;4274;52.012;8.448;2023-09-07T01:01:53;53.70;;;4.50;;
8474;SDS011;4274;52.012;8.448;2023-09-07T01:04:18;50.40;;;4.47;;
8474;SDS011;4274;52.012;8.448;2023-09-07T01:06:51;48.90;;;4.33;;
8474;SDS011;4274;52.012;8.448;2023-09-07T01:09:23;56.07;;;4.73;;
8474;SDS011;4274;52.012;8.448;2023-09-07T01:11:51;48.33;;;4.20;;
8474;SDS011;4274;52.012;8.448;2023-09-07T01:14:17;50.07;;;4.27;;
8474;SDS011;4274;52.012;8.448;2023-09-07T01:16:43;50.90;;;4.30;;
8474;SDS011;4274;52.012;8.448;2023-09-07T01:19:09;47.30;;;3.90;;
8474;SDS011;4274;52.012;8.448;2023-09-07T01:21:36;49.20;;;4.50;;
8474;SDS011;4274;52.012;8.448;2023-09-07T01:24:04;49.10;;;4.40;;
8474;SDS011;4274;52.012;8.448;2023-09-07T01:26:32;47.47;;;3.90;;
8474;SDS011;4274;52.012;8.448;2023-09-07T01:28:57;47.60;;;4.50;;
8474;SDS011;4274;52.012;8.448;2023-09-07T01:31:23;49.67;;;4.50;;
8474;SDS011;4274;52.012;8.448;2023-09-07T01:33:48;48.20;;;4.03;;
8474;SDS011;4274;52.012;8.448;2023-09-07T01:36:14;48.10;;;4.57;;
8474;SDS011;4274;52.012;8.448;2023-09-07T01:38:39;49.40;;;4.50;;
8474;SDS011;4274;52.012;8.448;2023-09-07T01:41:05;50.27;;;4.30;;
8474;SDS011;4274;52.012;8.448;2023-09-07T01:43:30;49.17;;;4.10;;
8474;SDS011;4274;52.012;8.448;2023-09-07T01:45:56;52.13;;;4.10;;
8474;SDS011;4274;52.012;8.448;2023-09-07T01:48:21;48.70;;;4.10;;
8474;SDS011;4274;52.012;8.448;2023-09-07T01:50:47;47.40;;;3.80;;
8474;SDS011;4274;52.012;8.448;2023-09-07T01:53:17;49.67;;;4.73;;
8474;SDS011;4274;52.012;8.448;2023-09-07T01:55:43;51.93;;;4.13;;
8474;SDS011;4274;52.012;8.448;2023-09-07T01:58:08;50.40;;;4.20;;
8474;SDS011;4274;52.012;8.448;2023-09-07T02:00:37;51.40;;;4.50;;
8474;SDS011;4274;52.012;8.448;2023-09-07T02:03:04;46.80;;;3.87;;
8474;SDS011;4274;52.012;8.448;2023-09-07T02:05:30;48.50;;;4.50;;
8474;SDS011;4274;52.012;8.448;2023-09-07T02:07:57;60.27;;;4.20;;
8474;SDS011;4274;52.012;8.448;2023-09-07T02:10:23;50.77;;;4.33;;
8474;SDS011;4274;52.012;8.448;2023-09-07T02:12:49;48.27;;;4.20;;
8474;SDS011;4274;52.012;8.448;2023-09-07T02:15:14;47.47;;;4.07;;
8474;SDS011;4274;52.012;8.448;2023-09-07T02:17:40;47.97;;;4.10;;
8474;SDS011;4274;52.012;8.448;2023-09-07T02:20:07;47.80;;;4.30;;
8474;SDS011;4274;52.012;8.448;2023-09-07T02:22:35;53.10;;;4.20;;
8474;SDS011;4274;52.012;8.448;2023-09-07T02:25:01;51.33;;;4.80;;
8474;SDS011;4274;52.012;8.448;2023-09-07T02:27:28;53.43;;;4.83;;
8474;SDS011;4274;52.012;8.448;2023-09-07T02:29:53;47.20;;;4.10;;
8474;SDS011;4274;52.012;8.448;2023-09-07T02:32:19;48.90;;;4.07;;
8474;SDS011;4274;52.012;8.448;2023-09-07T02:34:44;51.10;;;4.80;;
8474;SDS011;4274;52.012;8.448;2023-09-07T02:37:10;50.27;;;4.47;;
8474;SDS011;4274;52.012;8.448;2023-09-07T02:39:35;55.47;;;4.03;;
8474;SDS011;4274;52.012;8.448;2023-09-07T02:42:01;48.17;;;4.40;;
8474;SDS011;4274;52.012;8.448;2023-09-07T02:44:27;49.07;;;4.47;;
8474;SDS011;4274;52.012;8.448;2023-09-07T02:46:52;52.53;;;4.17;;
8474;SDS011;4274;52.012;8.448;2023-09-07T02:49:18;51.10;;;4.33;;
8474;SDS011;4274;52.012;8.448;2023-09-07T02:51:43;48.80;;;4.30;;
8474;SDS011;4274;52.012;8.448;2023-09-07T02:54:09;49.17;;;4.37;;
8474;SDS011;4274;52.012;8.448;2023-09-07T02:56:35;60.70;;;4.90;;
8474;SDS011;4274;52.012;8.448;2023-09-07T02:59:00;48.73;;;4.50;;
8474;SDS011;4274;52.012;8.448;2023-09-07T03:01:26;58.33;;;4.43;;
8474;SDS011;4274;52.012;8.448;2023-09-07T03:03:51;51.90;;;4.80;;
8474;SDS011;4274;52.012;8.448;2023-09-07T03:06:17;49.30;;;4.17;;
8474;SDS011;4274;52.012;8.448;2023-09-07T03:08:43;49.77;;;4.57;;
8474;SDS011;4274;52.012;8.448;2023-09-07T03:11:09;47.67;;;4.17;;
8474;SDS011;4274;52.012;8.448;2023-09-07T03:13:35;49.33;;;4.03;;
8474;SDS011;4274;52.012;8.448;2023-09-07T03:16:01;50.57;;;4.37;;
8474;SDS011;4274;52.012;8.448;2023-09-07T03:18:28;55.97;;;4.47;;
8474;SDS011;4274;52.012;8.448;2023-09-07T03:20:54;50.17;;;4.90;;
8474;SDS011;4274;52.012;8.448;2023-09-07T03:23:21;49.47;;;4.70;;
8474;SDS011;4274;52.012;8.448;2023-09-07T03:25:47;52.20;;;5.03;;
8474;SDS011;4274;52.012;8.448;2023-09-07T03:28:13;54.00;;;5.30;;
8474;SDS011;4274;52.012;8.448;2023-09-07T03:30:38;50.57;;;4.50;;
8474;SDS011;4274;52.012;8.448;2023-09-07T03:33:04;48.93;;;4.60;;
8474;SDS011;4274;52.012;8.448;2023-09-07T03:35:30;60.43;;;4.50;;
8474;SDS011;4274;52.012;8.448;2023-09-07T03:37:56;58.63;;;4.00;;
8474;SDS011;4274;52.012;8.448;2023-09-07T03:40:22;50.27;;;4.67;;
8474;SDS011;4274;52.012;8.448;2023-09-07T03:42:47;51.67;;;4.10;;
8474;SDS011;4274;52.012;8.448;2023-09-07T03:45:13;50.00;;;5.07;;
8474;SDS011;4274;52.012;8.448;2023-09-07T03:47:38;50.40;;;4.40;;
8474;SDS011;4274;52.012;8.448;2023-09-07T03:50:04;49.50;;;4.40;;
8474;SDS011;4274;52.012;8.448;2023-09-07T03:52:30;54.73;;;4.53;;
8474;SDS011;4274;52.012;8.448;2023-09-07T03:54:56;48.43;;;4.07;;
8474;SDS011;4274;52.012;8.448;2023-09-07T03:57:23;50.30;;;3.90;;
8474;SDS011;4274;52.012;8.448;2023-09-07T03:59:49;49.17;;;4.80;;
8474;SDS011;4274;52.012;8.448;2023-09-07T04:02:15;53.30;;;4.90;;
8474;SDS011;4274;52.012;8.448;2023-09-07T04:04:47;49.20;;;4.73;;
8474;SDS011;4274;52.012;8.448;2023-09-07T04:07:14;51.47;;;4.70;;
8474;SDS011;4274;52.012;8.448;2023-09-07T04:09:40;58.17;;;4.97;;
8474;SDS011;4274;52.012;8.448;2023-09-07T04:12:05;52.80;;;5.13;;
8474;SDS011;4274;52.012;8.448;2023-09-07T04:14:31;50.20;;;5.17;;
8474;SDS011;4274;52.012;8.448;2023-09-07T04:16:57;51.03;;;4.60;;
8474;SDS011;4274;52.012;8.448;2023-09-07T04:19:23;50.40;;;4.63;;
8474;SDS011;4274;52.012;8.448;2023-09-07T04:21:49;50.17;;;4.53;;
8474;SDS011;4274;52.012;8.448;2023-09-07T04:24:15;54.83;;;4.93;;
8474;SDS011;4274;52.012;8.448;2023-09-07T04:26:40;49.47;;;4.70;;
8474;SDS011;4274;52.012;8.448;2023-09-07T04:29:06;52.00;;;5.00;;
8474;SDS011;4274;52.012;8.448;2023-09-07T04:31:33;50.77;;;5.50;;
8474;SDS011;4274;52.012;8.448;2023-09-07T04:33:58;50.37;;;5.00;;
8474;SDS011;4274;52.012;8.448;2023-09-07T04:36:25;51.37;;;5.20;;
8474;SDS011;4274;52.012;8.448;2023-09-07T04:38:50;53.30;;;5.37;;
8474;SDS011;4274;52.012;8.448;2023-09-07T04:41:16;56.17;;;5.10;;
8474;SDS011;4274;52.012;8.448;2023-09-07T04:43:42;48.70;;;5.63;;
8474;SDS011;4274;52.012;8.448;2023-09-07T04:46:11;49.40;;;5.50;;
8474;SDS011;4274;52.012;8.448;2023-09-07T04:48:38;48.20;;;4.70;;
8474;SDS011;4274;52.012;8.448;2023-09-07T04:51:05;48.90;;;4.97;;
8474;SDS011;4274;52.012;8.448;2023-09-07T04:53:32;53.13;;;5.47;;
8474;SDS011;4274;52.012;8.448;2023-09-07T04:56:00;54.50;;;5.43;;
8474;SDS011;4274;52.012;8.448;2023-09-07T04:58:30;49.10;;;5.00;;
8474;SDS011;4274;52.012;8.448;2023-09-07T05:01:05;49.77;;;4.90;;
8474;SDS011;4274;52.012;8.448;2023-09-07T05:03:33;49.13;;;5.83;;
8474;SDS011;4274;52.012;8.448;2023-09-07T05:05:59;51.17;;;5.67;;
8474;SDS011;4274;52.012;8.448;2023-09-07T05:08:25;48.77;;;5.67;;
8474;SDS011;4274;52.012;8.448;2023-09-07T05:10:54;53.33;;;5.00;;
8474;SDS011;4274;52.012;8.448;2023-09-07T05:13:24;49.07;;;5.50;;
8474;SDS011;4274;52.012;8.448;2023-09-07T05:15:51;53.47;;;5.00;;
8474;SDS011;4274;52.012;8.448;2023-09-07T05:18:17;50.30;;;5.70;;
8474;SDS011;4274;52.012;8.448;2023-09-07T05:20:43;53.13;;;5.00;;
8474;SDS011;4274;52.012;8.448;2023-09-07T05:23:11;49.60;;;4.97;;
8474;SDS011;4274;52.012;8.448;2023-09-07T05:25:43;51.10;;;5.03;;
8474;SDS011;4274;52.012;8.448;2023-09-07T05:28:20;49.40;;;4.90;;
8474;SDS011;4274;52.012;8.448;2023-09-07T05:30:46;47.37;;;4.63;;
8474;SDS011;4274;52.012;8.448;2023-09-07T05:33:13;49.70;;;5.50;;
8474;SDS011;4274;52.012;8.448;2023-09-07T05:35:41;50.80;;;5.90;;
8474;SDS011;4274;52.012;8.448;2023-09-07T05:38:10;48.50;;;5.07;;
8474;SDS011;4274;52.012;8.448;2023-09-07T05:40:40;49.20;;;5.37;;
8474;SDS011;4274;52.012;8.448;2023-09-07T05:43:07;51.87;;;5.00;;
8474;SDS011;4274;52.012;8.448;2023-09-07T05:45:34;51.70;;;5.53;;
8474;SDS011;4274;52.012;8.448;2023-09-07T05:48:04;48.13;;;4.83;;
8474;SDS011;4274;52.012;8.448;2023-09-07T05:50:30;50.97;;;4.73;;
8474;SDS011;4274;52.012;8.448;2023-09-07T05:52:58;49.20;;;5.33;;
8474;SDS011;4274;52.012;8.448;2023-09-07T05:55:23;49.30;;;5.03;;
8474;SDS011;4274;52.012;8.448;2023-09-07T05:57:49;49.07;;;4.60;;
8474;SDS011;4274;52.012;8.448;2023-09-07T06:00:15;52.90;;;5.17;;
8474;SDS011;4274;52.012;8.448;2023-09-07T06:02:42;51.27;;;5.80;;
8474;SDS011;4274;52.012;8.448;2023-09-07T06:05:08;48.27;;;4.70;;
8474;SDS011;4274;52.012;8.448;2023-09-07T06:07:35;49.10;;;4.53;;
8474;SDS011;4274;52.012;8.448;2023-09-07T06:10:00;47.50;;;4.67;;
8474;SDS011;4274;52.012;8.448;2023-09-07T06:12:26;48.87;;;5.20;;
8474;SDS011;4274;52.012;8.448;2023-09-07T06:14:52;54.43;;;4.80;;
8474;SDS011;4274;52.012;8.448;2023-09-07T06:17:17;50.40;;;5.20;;
8474;SDS011;4274;52.012;8.448;2023-09-07T06:19:43;56.43;;;4.83;;
8474;SDS011;4274;52.012;8.448;2023-09-07T06:22:10;53.10;;;4.87;;
8474;SDS011;4274;52.012;8.448;2023-09-07T06:24:35;53.90;;;5.10;;
8474;SDS011;4274;52.012;8.448;2023-09-07T06:27:01;51.33;;;5.23;;
8474;SDS011;4274;52.012;8.448;2023-09-07T06:29:27;48.80;;;4.37;;
8474;SDS011;4274;52.012;8.448;2023-09-07T06:31:52;53.50;;;4.80;;
8474;SDS011;4274;52.012;8.448;2023-09-07T06:34:18;53.80;;;6.07;;
8474;SDS011;4274;52.012;8.448;2023-09-07T06:36:43;50.83;;;4.97;;
8474;SDS011;4274;52.012;8.448;2023-09-07T06:39:09;52.83;;;4.93;;
8474;SDS011;4274;52.012;8.448;2023-09-07T06:41:34;48.30;;;4.70;;
8474;SDS011;4274;52.012;8.448;2023-09-07T06:44:00;55.33;;;4.63;;
8474;SDS011;4274;52.012;8.448;2023-09-07T06:46:26;50.13;;;4.50;;
8474;SDS011;4274;52.012;8.448;2023-09-07T06:48:52;48.40;;;5.00;;
8474;SDS011;4274;52.012;8.448;2023-09-07T06:51:17;48.20;;;4.20;;
8474;SDS011;4274;52.012;8.448;2023-09-07T06:53:43;50.77;;;5.00;;
8474;SDS011;4274;52.012;8.448;2023-09-07T06:56:08;57.00;;;4.67;;
8474;SDS011;4274;52.012;8.448;2023-09-07T06:58:35;47.73;;;4.10;;
8474;SDS011;4274;52.012;8.448;2023-09-07T07:01:01;50.70;;;4.90;;
8474;SDS011;4274;52.012;8.448;2023-09-07T07:03:27;53.53;;;5.30;;
8474;SDS011;4274;52.012;8.448;2023-09-07T07:05:54;49.80;;;4.83;;
8474;SDS011;4274;52.012;8.448;2023-09-07T07:08:20;49.60;;;5.00;;
8474;SDS011;4274;52.012;8.448;2023-09-07T07:10:46;50.37;;;5.70;;
8474;SDS011;4274;52.012;8.448;2023-09-07T07:13:11;48.60;;;4.90;;
8474;SDS011;4274;52.012;8.448;2023-09-07T07:15:37;50.20;;;4.57;;
8474;SDS011;4274;52.012;8.448;2023-09-07T07:18:03;50.67;;;5.30;;
8474;SDS011;4274;52.012;8.448;2023-09-07T07:20:33;51.00;;;4.73;;
8474;SDS011;4274;52.012;8.448;2023-09-07T07:23:03;49.00;;;5.30;;
8474;SDS011;4274;52.012;8.448;2023-09-07T07:25:28;50.27;;;5.07;;
8474;SDS011;4274;52.012;8.448;2023-09-07T07:27:56;59.83;;;4.40;;
8474;SDS011;4274;52.012;8.448;2023-09-07T07:30:21;50.17;;;4.90;;
8474;SDS011;4274;52.012;8.448;2023-09-07T07:32:47;52.07;;;4.77;;
8474;SDS011;4274;52.012;8.448;2023-09-07T07:35:13;50.00;;;5.23;;
8474;SDS011;4274;52.012;8.448;2023-09-07T07:37:39;51.57;;;4.97;;
8474;SDS011;4274;52.012;8.448;2023-09-07T07:40:05;52.97;;;5.63;;
8474;SDS011;4274;52.012;8.448;2023-09-07T07:42:31;48.70;;;4.83;;
8474;SDS011;4274;52.012;8.448;2023-09-07T07:44:57;51.97;;;5.10;;
8474;SDS011;4274;52.012;8.448;2023-09-07T07:47:22;57.27;;;5.07;;
8474;SDS011;4274;52.012;8.448;2023-09-07T07:49:48;54.37;;;5.03;;
8474;SDS011;4274;52.012;8.448;2023-09-07T07:52:14;49.77;;;4.80;;
8474;SDS011;4274;52.012;8.448;2023-09-07T07:54:39;51.80;;;4.70;;
8474;SDS011;4274;52.012;8.448;2023-09-07T07:57:05;53.07;;;5.53;;
8474;SDS011;4274;52.012;8.448;2023-09-07T07:59:30;52.17;;;5.20;;
8474;SDS011;4274;52.012;8.448;2023-09-07T08:01:56;50.97;;;4.80;;
8474;SDS011;4274;52.012;8.448;2023-09-07T08:04:21;54.30;;;4.97;;
8474;SDS011;4274;52.012;8.448;2023-09-07T08:06:47;53.67;;;5.90;;
8474;SDS011;4274;52.012;8.448;2023-09-07T08:09:12;52.20;;;5.17;;
8474;SDS011;4274;52.012;8.448;2023-09-07T08:11:39;50.20;;;5.00;;
8474;SDS011;4274;52.012;8.448;2023-09-07T08:14:04;48.93;;;5.13;;
8474;SDS011;4274;52.012;8.448;2023-09-07T08:16:30;48.10;;;4.40;;
8474;SDS011;4274;52.012;8.448;2023-09-07T08:18:55;52.60;;;4.47;;
8474;SDS011;4274;52.012;8.448;2023-09-07T08:21:21;51.07;;;5.27;;
8474;SDS011;4274;52.012;8.448;2023-09-07T08:23:46;49.40;;;4.90;;
8474;SDS011;4274;52.012;8.448;2023-09-07T08:26:12;49.23;;;4.80;;
8474;SDS011;4274;52.012;8.448;2023-09-07T08:28:39;49.80;;;4.63;;
8474;SDS011;4274;52.012;8.448;2023-09-07T08:31:05;49.20;;;4.80;;
8474;SDS011;4274;52.012;8.448;2023-09-07T08:33:31;51.93;;;4.83;;
8474;SDS011;4274;52.012;8.448;2023-09-07T08:36:00;50.03;;;5.07;;
8474;SDS011;4274;52.012;8.448;2023-09-07T08:38:26;50.23;;;4.33;;
8474;SDS011;4274;52.012;8.448;2023-09-07T08:40:55;48.90;;;4.57;;
8474;SDS011;4274;52.012;8.448;2023-09-07T08:43:26;57.90;;;5.10;;
8474;SDS011;4274;52.012;8.448;2023-09-07T08:46:11;50.40;;;5.40;;
8474;SDS011;4274;52.012;8.448;2023-09-07T08:48:41;49.80;;;5.00;;
8474;SDS011;4274;52.012;8.448;2023-09-07T08:51:09;53.60;;;5.30;;
8474;SDS011;4274;52.012;8.448;2023-09-07T08:53:37;53.80;;;5.57;;
8474;SDS011;4274;52.012;8.448;2023-09-07T08:56:03;66.03;;;5.63;;
8474;SDS011;4274;52.012;8.448;2023-09-07T08:58:30;52.00;;;5.10;;
8474;SDS011;4274;52.012;8.448;2023-09-07T09:00:57;49.67;;;4.70;;
8474;SDS011;4274;52.012;8.448;2023-09-07T09:03:22;50.67;;;5.07;;
8474;SDS011;4274;52.012;8.448;2023-09-07T09:05:48;55.00;;;5.70;;
8474;SDS011;4274;52.012;8.448;2023-09-07T09:08:16;50.60;;;5.13;;
8474;SDS011;4274;52.012;8.448;2023-09-07T09:10:45;48.47;;;5.37;;
8474;SDS011;4274;52.012;8.448;2023-09-07T09:13:10;51.00;;;4.90;;
8474;SDS011;4274;52.012;8.448;2023-09-07T09:15:36;51.03;;;5.00;;
8474;SDS011;4274;52.012;8.448;2023-09-07T09:18:12;49.47;;;5.20;;
8474;SDS011;4274;52.012;8.448;2023-09-07T09:20:38;54.87;;;4.70;;
8474;SDS011;4274;52.012;8.448;2023-09-07T09:23:04;53.10;;;4.27;;
8474;SDS011;4274;52.012;8.448;2023-09-07T09:25:30;48.80;;;4.50;;
8474;SDS011;4274;52.012;8.448;2023-09-07T09:27:56;57.70;;;5.30;;
8474;SDS011;4274;52.012;8.448;2023-09-07T09:30:22;48.07;;;4.43;;
8474;SDS011;4274;52.012;8.448;2023-09-07T09:32:48;48.00;;;4.60;;
8474;SDS011;4274;52.012;8.448;2023-09-07T09:35:16;48.17;;;4.37;;
8474;SDS011;4274;52.012;8.448;2023-09-07T09:37:43;53.27;;;4.90;;
8474;SDS011;4274;52.012;8.448;2023-09-07T09:40:14;50.83;;;4.80;;
8474;SDS011;4274;52.012;8.448;2023-09-07T09:42:41;48.13;;;4.50;;
8474;SDS011;4274;52.012;8.448;2023-09-07T09:45:08;51.17;;;5.60;;
8474;SDS011;4274;52.012;8.448;2023-09-07T09:47:38;52.30;;;4.93;;
8474;SDS011;4274;52.012;8.448;2023-09-07T09:50:06;49.50;;;4.80;;
8474;SDS011;4274;52.012;8.448;2023-09-07T09:52:35;51.90;;;4.40;;
8474;SDS011;4274;52.012;8.448;2023-09-07T09:55:03;49.07;;;4.87;;
8474;SDS011;4274;52.012;8.448;2023-09-07T09:57:32;49.27;;;4.87;;
8474;SDS011;4274;52.012;8.448;2023-09-07T09:59:58;50.37;;;4.63;;
8474;SDS011;4274;52.012;8.448;2023-09-07T10:02:24;48.73;;;4.60;;
8474;SDS011;4274;52.012;8.448;2023-09-07T10:04:51;51.23;;;4.97;;
8474;SDS011;4274;52.012;8.448;2023-09-07T10:07:18;50.00;;;4.50;;
8474;SDS011;4274;52.012;8.448;2023-09-07T10:09:44;49.97;;;4.63;;
8474;SDS011;4274;52.012;8.448;2023-09-07T10:12:13;49.57;;;4.90;;
8474;SDS011;4274;52.012;8.448;2023-09-07T10:14:39;51.57;;;4.93;;
8474;SDS011;4274;52.012;8.448;2023-09-07T10:17:10;53.90;;;4.70;;
8474;SDS011;4274;52.012;8.448;2023-09-07T10:19:47;49.30;;;4.73;;
8474;SDS011;4274;52.012;8.448;2023-09-07T10:22:22;50.57;;;4.10;;
8474;SDS011;4274;52.012;8.448;2023-09-07T10:24:56;53.43;;;5.03;;
8474;SDS011;4274;52.012;8.448;2023-09-07T10:27:24;51.20;;;5.00;;
8474;SDS011;4274;52.012;8.448;2023-09-07T10:29:50;50.20;;;5.00;;
8474;SDS011;4274;52.012;8.448;2023-09-07T10:32:19;48.10;;;4.40;;
8474;SDS011;4274;52.012;8.448;2023-09-07T10:34:45;51.80;;;4.87;;
8474;SDS011;4274;52.012;8.448;2023-09-07T10:37:11;52.03;;;5.13;;
8474;SDS011;4274;52.012;8.448;2023-09-07T10:39:40;50.10;;;4.93;;
8474;SDS011;4274;52.012;8.448;2023-09-07T10:42:08;53.10;;;5.30;;
8474;SDS011;4274;52.012;8.448;2023-09-07T10:44:44;50.07;;;4.43;;
8474;SDS011;4274;52.012;8.448;2023-09-07T10:47:10;55.43;;;5.07;;
8474;SDS011;4274;52.012;8.448;2023-09-07T10:49:35;52.10;;;4.63;;
8474;SDS011;4274;52.012;8.448;2023-09-07T10:52:01;51.80;;;4.57;;
8474;SDS011;4274;52.012;8.448;2023-09-07T10:54:29;48.47;;;4.20;;
8474;SDS011;4274;52.012;8.448;2023-09-07T10:56:54;50.37;;;4.80;;
8474;SDS011;4274;52.012;8.448;2023-09-07T10:59:22;52.73;;;4.60;;
8474;SDS011;4274;52.012;8.448;2023-09-07T11:01:48;48.27;;;4.40;;
8474;SDS011;4274;52.012;8.448;2023-09-07T11:04:13;55.47;;;4.90;;
8474;SDS011;4274;52.012;8.448;2023-09-07T11:06:42;48.77;;;4.20;;
8474;SDS011;4274;52.012;8.448;2023-09-07T11:09:08;51.90;;;4.80;;
8474;SDS011;4274;52.012;8.448;2023-09-07T11:11:35;52.13;;;4.30;;
8474;SDS011;4274;52.012;8.448;2023-09-07T11:14:05;50.37;;;4.30;;
8474;SDS011;4274;52.012;8.448;2023-09-07T11:16:32;48.90;;;4.57;;
8474;SDS011;4274;52.012;8.448;2023-09-07T11:19:02;47.90;;;3.47;;
8474;SDS011;4274;52.012;8.448;2023-09-07T11:21:31;50.43;;;4.10;;
8474;SDS011;4274;52.012;8.448;2023-09-07T11:24:01;52.30;;;4.33;;
8474;SDS011;4274;52.012;8.448;2023-09-07T11:26:42;52.47;;;3.93;;
8474;SDS011;4274;52.012;8.448;2023-09-07T11:29:09;53.03;;;3.87;;
8474;SDS011;4274;52.012;8.448;2023-09-07T11:31:35;50.10;;;3.97;;
8474;SDS011;4274;52.012;8.448;2023-09-07T11:34:00;52.53;;;4.27;;
8474;SDS011;4274;52.012;8.448;2023-09-07T11:36:26;51.60;;;4.07;;
8474;SDS011;4274;52.012;8.448;2023-09-07T11:38:52;51.37;;;4.00;;
8474;SDS011;4274;52.012;8.448;2023-09-07T11:41:18;53.03;;;4.33;;
8474;SDS011;4274;52.012;8.448;2023-09-07T11:43:43;49.13;;;4.17;;
8474;SDS011;4274;52.012;8.448;2023-09-07T11:46:10;49.87;;;4.00;;
8474;SDS011;4274;52.012;8.448;2023-09-07T11:48:36;49.23;;;3.83;;
8474;SDS011;4274;52.012;8.448;2023-09-07T11:51:01;50.00;;;4.20;;
8474;SDS011;4274;52.012;8.448;2023-09-07T11:53:27;50.07;;;4.23;;
8474;SDS011;4274;52.012;8.448;2023-09-07T11:55:52;49.00;;;3.77;;
8474;SDS011;4274;52.012;8.448;2023-09-07T11:58:18;51.00;;;4.10;;
8474;SDS011;4274;52.012;8.448;2023-09-07T12:00:44;49.10;;;3.80;;
8474;SDS011;4274;52.012;8.448;2023-09-07T12:03:10;52.17;;;4.07;;
8474;SDS011;4274;52.012;8.448;2023-09-07T12:05:35;56.43;;;3.90;;
8474;SDS011;4274;52.012;8.448;2023-09-07T12:08:02;51.33;;;3.90;;
8474;SDS011;4274;52.012;8.448;2023-09-07T12:10:28;49.00;;;3.40;;
8474;SDS011;4274;52.012;8.448;2023-09-07T12:12:54;52.10;;;4.27;;
8474;SDS011;4274;52.012;8.448;2023-09-07T12:15:19;48.77;;;3.50;;
8474;SDS011;4274;52.012;8.448;2023-09-07T12:17:45;49.20;;;3.97;;
8474;SDS011;4274;52.012;8.448;2023-09-07T12:20:11;52.37;;;3.47;;
8474;SDS011;4274;52.012;8.448;2023-09-07T12:22:39;52.90;;;4.00;;
8474;SDS011;4274;52.012;8.448;2023-09-07T12:25:05;49.50;;;4.00;;
8474;SDS011;4274;52.012;8.448;2023-09-07T12:27:32;61.63;;;3.80;;
8474;SDS011;4274;52.012;8.448;2023-09-07T12:29:59;51.30;;;3.90;;
8474;SDS011;4274;52.012;8.448;2023-09-07T12:32:24;56.43;;;4.43;;
8474;SDS011;4274;52.012;8.448;2023-09-07T12:34:50;51.10;;;3.70;;
8474;SDS011;4274;52.012;8.448;2023-09-07T12:37:18;50.80;;;3.63;;
8474;SDS011;4274;52.012;8.448;2023-09-07T12:39:44;60.63;;;3.77;;
8474;SDS011;4274;52.012;8.448;2023-09-07T12:42:10;53.50;;;3.80;;
8474;SDS011;4274;52.012;8.448;2023-09-07T12:44:35;49.07;;;3.80;;
8474;SDS011;4274;52.012;8.448;2023-09-07T12:47:01;48.57;;;3.93;;
8474;SDS011;4274;52.012;8.448;2023-09-07T12:49:26;52.00;;;3.50;;
8474;SDS011;4274;52.012;8.448;2023-09-07T12:51:52;53.50;;;3.53;;
8474;SDS011;4274;52.012;8.448;2023-09-07T12:54:17;49.93;;;4.07;;
8474;SDS011;4274;52.012;8.448;2023-09-07T12:56:43;48.47;;;3.60;;
8474;SDS011;4274;52.012;8.448;2023-09-07T12:59:09;51.20;;;3.60;;
8474;SDS011;4274;52.012;8.448;2023-09-07T13:01:35;49.20;;;3.40;;
8474;SDS011;4274;52.012;8.448;2023-09-07T13:04:01;48.63;;;3.30;;
8474;SDS011;4274;52.012;8.448;2023-09-07T13:06:27;54.00;;;3.80;;
8474;SDS011;4274;52.012;8.448;2023-09-07T13:08:53;49.57;;;4.00;;
8474;SDS011;4274;52.012;8.448;2023-09-07T13:11:19;52.57;;;4.00;;
8474;SDS011;4274;52.012;8.448;2023-09-07T13:13:44;50.77;;;4.13;;
8474;SDS011;4274;52.012;8.448;2023-09-07T13:16:10;51.87;;;4.67;;
8474;SDS011;4274;52.012;8.448;2023-09-07T13:18:36;52.90;;;4.20;;
8474;SDS011;4274;52.012;8.448;2023-09-07T13:21:03;56.17;;;4.00;;
8474;SDS011;4274;52.012;8.448;2023-09-07T13:23:29;49.20;;;4.30;;
8474;SDS011;4274;52.012;8.448;2023-09-07T13:25:55;49.03;;;3.80;;
8474;SDS011;4274;52.012;8.448;2023-09-07T13:28:21;54.10;;;4.00;;
8474;SDS011;4274;52.012;8.448;2023-09-07T13:30:47;51.60;;;4.20;;
8474;SDS011;4274;52.012;8.448;2023-09-07T13:33:12;49.07;;;4.13;;
8474;SDS011;4274;52.012;8.448;2023-09-07T13:35:38;53.20;;;4.10;;
8474;SDS011;4274;52.012;8.448;2023-09-07T13:38:05;53.93;;;4.27;;
8474;SDS011;4274;52.012;8.448;2023-09-07T13:40:31;50.87;;;3.77;;
8474;SDS011;4274;52.012;8.448;2023-09-07T13:42:56;53.57;;;4.30;;
8474;SDS011;4274;52.012;8.448;2023-09-07T13:45:22;53.23;;;4.20;;
8474;SDS011;4274;52.012;8.448;2023-09-07T13:47:48;54.60;;;4.00;;
8474;SDS011;4274;52.012;8.448;2023-09-07T13:50:13;49.57;;;3.97;;
8474;SDS011;4274;52.012;8.448;2023-09-07T13:52:39;49.00;;;3.57;;
8474;SDS011;4274;52.012;8.448;2023-09-07T13:55:05;52.50;;;4.50;;
8474;SDS011;4274;52.012;8.448;2023-09-07T13:57:31;48.43;;;3.90;;
8474;SDS011;4274;52.012;8.448;2023-09-07T13:59:57;47.93;;;3.90;;
8474;SDS011;4274;52.012;8.448;2023-09-07T14:02:23;52.43;;;4.17;;
8474;SDS011;4274;52.012;8.448;2023-09-07T14:04:48;50.60;;;4.50;;
8474;SDS011;4274;52.012;8.448;2023-09-07T14:07:14;49.63;;;4.03;;
8474;SDS011;4274;52.012;8.448;2023-09-07T14:09:40;51.10;;;4.60;;
8474;SDS011;4274;52.012;8.448;2023-09-07T14:12:06;51.00;;;4.47;;
8474;SDS011;4274;52.012;8.448;2023-09-07T14:14:32;50.03;;;3.80;;
8474;SDS011;4274;52.012;8.448;2023-09-07T14:16:57;50.47;;;4.77;;
8474;SDS011;4274;52.012;8.448;2023-09-07T14:19:25;49.90;;;4.13;;
8474;SDS011;4274;52.012;8.448;2023-09-07T14:21:52;60.20;;;4.10;;
8474;SDS011;4274;52.012;8.448;2023-09-07T14:24:18;49.30;;;4.10;;
8474;SDS011;4274;52.012;8.448;2023-09-07T14:26:43;49.80;;;3.93;;
8474;SDS011;4274;52.012;8.448;2023-09-07T14:29:09;48.83;;;4.37;;
8474;SDS011;4274;52.012;8.448;2023-09-07T14:31:34;49.90;;;4.27;;
8474;SDS011;4274;52.012;8.448;2023-09-07T14:34:00;52.47;;;4.50;;
8474;SDS011;4274;52.012;8.448;2023-09-07T14:36:25;48.27;;;3.70;;
8474;SDS011;4274;52.012;8.448;2023-09-07T14:38:51;52.30;;;4.33;;
8474;SDS011;4274;52.012;8.448;2023-09-07T14:41:17;56.43;;;4.60;;
8474;SDS011;4274;52.012;8.448;2023-09-07T14:43:44;52.20;;;3.83;;
8474;SDS011;4274;52.012;8.448;2023-09-07T14:46:10;52.90;;;3.90;;
8474;SDS011;4274;52.012;8.448;2023-09-07T14:48:36;49.60;;;3.93;;
8474;SDS011;4274;52.012;8.448;2023-09-07T14:51:02;48.07;;;3.57;;
8474;SDS011;4274;52.012;8.448;2023-09-07T14:53:27;50.90;;;4.10;;
8474;SDS011;4274;52.012;8.448;2023-09-07T14:55:53;53.60;;;4.10;;